Aviation Digital Data Service (ADDS)

Output produced by METARs form (0556 UTC 21 April 2018)
found at http://aviationweather.gov/adds/metars/
 
METAR text: KSMF 210553Z 19007KT 10SM CLR 15/11 A3008 RMK AO2 SLP186 T01500106 10272 20150 51011
Conditions at: KSMF (SACRAMENTO/METRO, CA, US) observed 0553 UTC 21 April 2018
Temperature: 15.0°C (59°F)
Dewpoint: 10.6°C (51°F) [RH = 75%]
Pressure (altimeter): 30.08 inches Hg (1018.7 mb)
[Sea-level pressure: 1018.6 mb]
Winds: from the S (190 degrees) at 8 MPH (7 knots; 3.6 m/s)
Visibility: 10 or more miles (16+ km)
Ceiling: at least 12,000 feet AGL
Clouds: sky clear below 12,000 feet AGL
Weather: no significant weather observed at this time

Forecast for: KSMF (SACRAMENTO/METRO, CA, US)
Text: KSMF 210520Z 2106/2206 17007KT P6SM SKC
Forecast period: 0600 to 1600 UTC 21 April 2018
Forecast type: FROM: standard forecast or significant change
Winds: from the S (170 degrees) at 8 MPH (7 knots; 3.6 m/s)
Visibility: 6 or more miles (10+ km)
Clouds: clear skies
Weather: no significant weather forecast for this period
Forecast for: KSMF (SACRAMENTO/METRO, CA, US)
Text: KSMF 210520Z 2106/2206 17007KT P6SM SKC
Forecast period: 0600 to 1600 UTC 21 April 2018
Forecast type: FROM: standard forecast or significant change
Winds: from the S (170 degrees) at 8 MPH (7 knots; 3.6 m/s)
Visibility: 6 or more miles (10+ km)
Clouds: clear skies
Weather: no significant weather forecast for this period
Forecast for: KSMF (SACRAMENTO/METRO, CA, US)
Text: KSMF 210520Z 2106/2206 17007KT P6SM SKC
Forecast period: 1600 UTC 21 April 2018 to 0600 UTC 22 April 2018
Forecast type: FROM: standard forecast or significant change
Winds: from the NNW (330 degrees) at 6 MPH (5 knots; 2.6 m/s)
Visibility: 6 or more miles (10+ km)
Clouds: clear skies
Weather: no significant weather forecast for this period
Forecast for: KSMF (SACRAMENTO/METRO, CA, US)
Text: KSMF 210520Z 2106/2206 17007KT P6SM SKC
Forecast period: 1600 UTC 21 April 2018 to 0600 UTC 22 April 2018
Forecast type: FROM: standard forecast or significant change
Winds: from the NNW (330 degrees) at 6 MPH (5 knots; 2.6 m/s)
Visibility: 6 or more miles (10+ km)
Clouds: clear skies
Weather: no significant weather forecast for this period